Flight Track Log - Related Links

Times and Time Zones

All times are in EDT time to prevent confusion due to time zone crossing. See the EXS174 flight status page for this flight to view local times or setup timezone preferences in your user account.

Time Position Orientation Groundspeed Altitude Reporting Facility
EDT Latitude Longitude Course Direction KTS MPH feet Rate Location/Type
Sat 06:48:32 AM 38.7603 -7.7269 North  Level Estimated
Sat 06:49:32 AM 38.8659 -7.7121 North  Level Estimated
Sat 06:50:32 AM 38.9715 -7.6972 North  Level Estimated
Sat 06:51:32 AM 39.0505 -7.6860 North  Level Estimated
Sat 06:52:32 AM 39.1296 -7.6748 North  Level Estimated
Sat 06:53:32 AM 39.2087 -7.6636 North  Level Estimated
Sat 06:54:32 AM 39.2877 -7.6524 North  Level Estimated
Sat 06:55:32 AM 39.3668 -7.6411 North  Level Estimated
Sat 06:56:32 AM 39.4459 -7.6298 North  Level Estimated
Sat 06:57:32 AM 39.5514 -7.6147 North  Level Estimated
Sat 06:58:32 AM 39.6570 -7.5995 North  Level Estimated
Sat 06:59:32 AM 39.7626 -7.5843 North  Level Estimated
Sat 07:00:32 AM 39.8416 -7.5729 North  Level Estimated
Sat 07:01:32 AM 39.9207 -7.5615 North  Level Estimated
Sat 07:02:32 AM 39.9997 -7.5500 North  Level Estimated
Sat 07:03:32 AM 40.0788 -7.5385 North  Level Estimated
Sat 07:04:32 AM 40.1579 -7.5269 North  Level Estimated
Sat 07:05:32 AM 40.2369 -7.5154 North  Level Estimated
Sat 07:06:32 AM 40.3160 -7.5038 North  Level Estimated
Sat 07:07:32 AM 40.3950 -7.4922 North  Level Estimated
Sat 07:08:32 AM 40.5006 -7.4767 North  Level Estimated
Sat 07:09:32 AM 40.6061 -7.4611 North  Level Estimated
Sat 07:10:32 AM 40.7117 -7.4454 North  Level Estimated
Sat 07:11:32 AM 40.8172 -7.4297 North  Level Estimated
Sat 07:12:32 AM 40.8963 -7.4180 North  Level Estimated
Sat 07:13:32 AM 40.9753 -7.4061 North  Level Estimated
Sat 07:14:32 AM 41.0544 -7.3943 North  Level Estimated
Sat 07:15:32 AM 41.1334 -7.3824 North  Level Estimated
Sat 07:16:32 AM 41.2124 -7.3705 North  Level Estimated
Sat 07:17:32 AM 41.2915 -7.3586 North  Level Estimated
Sat 07:18:32 AM 41.3705 -7.3466 North  Level Estimated
Sat 07:19:32 AM 41.4496 -7.3347 North  Level Estimated
Sat 07:20:32 AM 41.5286 -7.3226 North  Level Estimated
Sat 07:21:32 AM 41.6076 -7.3106 North  Level Estimated
Sat 07:22:32 AM 41.6867 -7.2985 North  Level Estimated
Sat 07:23:32 AM 41.7657 -7.2864 North  Level Estimated
Sat 07:24:32 AM 41.8712 -7.2702 North  Level Estimated
Sat 07:25:32 AM 41.9767 -7.2539 North  Level Estimated
Sat 07:26:32 AM 42.0823 -7.2376 North  Level Estimated
Sat 07:27:32 AM 42.1878 -7.2213 North  Level Estimated
Sat 07:28:32 AM 42.2933 -7.2048 North  Level Estimated
Sat 07:29:32 AM 42.3723 -7.1925 North  Level Estimated
Sat 07:30:32 AM 42.4513 -7.1801 North  Level Estimated
Sat 07:31:32 AM 42.5303 -7.1677 North  Level Estimated
Sat 07:32:32 AM 42.6094 -7.1553 North  Level Estimated
Sat 07:33:32 AM 42.6884 -7.1428 North  Level Estimated
Sat 07:34:32 AM 42.7674 -7.1303 North  Level Estimated
Sat 07:35:32 AM 42.8464 -7.1178 North  Level Estimated
Sat 07:36:32 AM 42.9254 -7.1052 North  Level Estimated
Sat 07:37:32 AM 43.0045 -7.0927 North  Level Estimated
Sat 07:38:32 AM 43.1100 -7.0758 North  Level Estimated
Sat 07:39:32 AM 43.2154 -7.0589 North  Level Estimated
Sat 07:40:32 AM 43.3209 -7.0419 North  Level Estimated
Sat 07:41:32 AM 43.3999 -7.0292 North  Level Estimated
Sat 07:42:32 AM 43.4789 -7.0164 North  Level Estimated
Sat 07:43:32 AM 43.5579 -7.0035 North  Level Estimated
Sat 07:44:32 AM 43.6369 -6.9907 North  Level Estimated
Sat 07:45:32 AM 43.7159 -6.9778 North  Level Estimated
Sat 07:46:32 AM 43.7949 -6.9649 North  Level Estimated
Sat 07:47:32 AM 43.8739 -6.9519 North  Level Estimated
Sat 07:48:32 AM 43.9529 -6.9389 North  Level Estimated
Sat 07:49:32 AM 44.0319 -6.9259 North  Level Estimated
Sat 07:50:32 AM 44.1109 -6.9128 North  Level Estimated
Sat 07:51:32 AM 44.1899 -6.8997 North  Level Estimated
Sat 07:52:32 AM 44.2689 -6.8866 North  Level Estimated
Sat 07:53:32 AM 44.3479 -6.8734 North  Level Estimated
Sat 07:54:32 AM 44.4533 -6.8558 North  Level Estimated
Sat 07:55:32 AM 44.5588 -6.8381 North  Level Estimated
Sat 07:56:32 AM 44.6643 -6.8203 North  Level Estimated
Sat 07:57:32 AM 44.7697 -6.8025 North  Level Estimated
Sat 07:58:32 AM 44.8487 -6.7891 North  Level Estimated
Sat 07:59:32 AM 44.9277 -6.7757 North  Level Estimated
Sat 08:00:32 AM 45.0066 -6.7622 North  Level Estimated
Sat 08:01:32 AM 45.0856 -6.7487 North  Level Estimated
Sat 08:02:32 AM 45.1646 -6.7351 North  Level Estimated
Sat 08:03:32 AM 45.2435 -6.7216 North  Level Estimated
Sat 08:04:32 AM 45.3225 -6.7080 North  Level Estimated
Sat 08:05:32 AM 45.4015 -6.6943 North  Level Estimated
Sat 08:06:32 AM 45.5069 -6.6760 North  Level Estimated
Sat 08:07:32 AM 45.6124 -6.6576 North  Level Estimated
Sat 08:08:32 AM 45.7178 -6.6392 North  Level Estimated
Sat 08:09:32 AM 45.8232 -6.6207 North  Level Estimated
Sat 08:10:32 AM 45.9286 -6.6021 North  Level Estimated
Sat 08:11:32 AM 46.0340 -6.5835 North  Level Estimated
Sat 08:12:32 AM 46.1395 -6.5648 North  Level Estimated
Sat 08:13:32 AM 46.2449 -6.5460 North  Level Estimated
Sat 08:14:32 AM 46.3503 -6.5271 North  Level Estimated
Sat 08:15:32 AM 46.4557 -6.5082 North  Level Estimated
Sat 08:16:32 AM 46.5611 -6.4892 North  Level Estimated
Sat 08:17:32 AM 46.6665 -6.4701 North  Level Estimated
Sat 08:18:32 AM 46.7719 -6.4510 North  Level Estimated
Sat 08:19:32 AM 46.8773 -6.4317 North  Level Estimated
Sat 08:20:32 AM 46.9827 -6.4124 North  Level Estimated
Sat 08:21:32 AM 47.0881 -6.3931 North  Level Estimated
Sat 08:22:32 AM 47.1934 -6.3736 North  Level Estimated
Sat 08:23:32 AM 47.2988 -6.3541 North  Level Estimated
Sat 08:24:32 AM 47.4042 -6.3345 North  Level Estimated
Sat 08:25:32 AM 47.4831 -6.3197 North  Level Estimated
Sat 08:26:32 AM 47.5620 -6.3050 North  Level Estimated
Sat 08:27:32 AM 47.6409 -6.2901 North  Level Estimated
Sat 08:28:32 AM 47.7199 -6.2752 North  Level Estimated
Sat 08:29:32 AM 47.7988 -6.2603 North  Level Estimated
Sat 08:30:32 AM 47.8777 -6.2454 North  Level Estimated
Sat 08:31:32 AM 47.9566 -6.2304 North  Level Estimated
Sat 08:32:32 AM 48.0355 -6.2153 North  Level Estimated
Sat 08:33:32 AM 48.1409 -6.1951 North  Level Estimated
Sat 08:34:32 AM 48.2462 -6.1749 North  Level Estimated
Sat 08:35:32 AM 48.3516 -6.1545 North  Level Estimated
Sat 08:36:32 AM 48.4569 -6.1341 North  Level Estimated
Sat 08:37:32 AM 48.5358 -6.1187 North  Level Estimated
Sat 08:38:32 AM 48.6147 -6.1033 North  Level Estimated
Sat 08:39:32 AM 48.6936 -6.0879 North  Level Estimated
Sat 08:40:32 AM 48.7724 -6.0724 North  Level Estimated
Sat 08:41:32 AM 48.8513 -6.0568 North  Level Estimated
Sat 08:42:32 AM 48.9302 -6.0412 North  Level Estimated
Sat 08:43:32 AM 49.0355 -6.0203 North  Level Estimated
Sat 08:44:32 AM 49.1409 -5.9994 North  Level Estimated
Sat 08:45:32 AM 49.2462 -5.9783 North  Level Estimated
Sat 08:46:32 AM 49.3251 -5.9624 North  Level Estimated
Sat 08:47:32 AM 49.4039 -5.9465 North  Level Estimated
Sat 08:48:32 AM 49.4828 -5.9306 North  Level Estimated
Sat 08:49:32 AM 49.5617 -5.9146 North  Level Estimated
Sat 08:50:32 AM 49.6405 -5.8985 North  Level Estimated
Sat 08:51:32 AM 49.7194 -5.8824 North  Level Estimated
Sat 08:52:32 AM 49.7982 -5.8663 North  Level Estimated
Sat 08:53:32 AM 49.8771 -5.8500 North  Level Estimated
Sat 08:54:32 AM 49.9824 -5.8283 North  Level Estimated
Sat 08:55:32 AM 50.0877 -5.8065 North  Level Estimated
Sat 08:56:32 AM 50.1930 -5.7846 North  Level Estimated
Sat 08:57:32 AM 50.2982 -5.7626 North  Level Estimated
Sat 08:58:32 AM 50.3771 -5.7460 North  Level Estimated
Sat 08:59:32 AM 50.4559 -5.7294 North  Level Estimated
Sat 09:00:32 AM 50.5348 -5.7128 North  Level Estimated
Sat 09:01:32 AM 50.6136 -5.6960 North  Level Estimated
Sat 09:02:32 AM 50.6924 -5.6793 North  Level Estimated
Sat 09:03:32 AM 50.7713 -5.6624 North  Level Estimated
Sat 09:04:32 AM 50.8501 -5.6455 North  Level Estimated
Sat 09:05:32 AM 50.9553 -5.6229 North  Level Estimated
Sat 09:06:32 AM 51.0606 -5.6002 North  Level Estimated
Sat 09:07:32 AM 51.1658 -5.5773 North  Level Estimated
Sat 09:08:32 AM 51.2710 -5.5544 North  Level Estimated
Sat 09:09:32 AM 51.3763 -5.5313 North  Level Estimated
Sat 09:10:32 AM 51.4551 -5.5140 North  Level Estimated
Sat 09:11:32 AM 51.5339 -5.4966 North  Level Estimated
Sat 09:12:32 AM 51.6127 -5.4792 North  Level Estimated
Sat 09:13:32 AM 51.6915 -5.4616 North  Level Estimated
Sat 09:14:32 AM 51.7703 -5.4441 North  Level Estimated
Sat 09:15:32 AM 51.8491 -5.4264 North  Level Estimated
Sat 09:16:32 AM 51.9279 -5.4087 North  Level Estimated
Sat 09:17:32 AM 52.0067 -5.3910 North  Level Estimated
Sat 09:18:32 AM 52.0855 -5.3731 North  Level Estimated
Sat 09:19:32 AM 52.1642 -5.3552 North  Level Estimated
Sat 09:20:32 AM 52.2430 -5.3373 North  Level Estimated
Sat 09:21:32 AM 52.3482 -5.3132 North  Level Estimated
Sat 09:22:32 AM 52.4534 -5.2891 North  Level Estimated
Sat 09:23:32 AM 52.5586 -5.2648 North  Level Estimated
Sat 09:24:32 AM 52.6637 -5.2403 North  Level Estimated
Sat 09:25:32 AM 52.7425 -5.2220 North  Level Estimated
Sat 09:26:32 AM 52.8213 -5.2035 North  Level Estimated
Sat 09:27:32 AM 52.9000 -5.1851 North  Level Estimated
Sat 09:28:32 AM 52.9788 -5.1665 North  Level Estimated
Sat 09:29:32 AM 53.0576 -5.1479 North  Level Estimated
Sat 09:30:32 AM 53.1363 -5.1292 North  Level Estimated
Sat 09:31:32 AM 53.2151 -5.1104 North  Level Estimated
Sat 09:32:32 AM 53.2938 -5.0915 North  Level Estimated
Sat 09:33:32 AM 53.3989 -5.0663 North  Level Estimated
Sat 09:34:32 AM 53.5041 -5.0409 North  Level Estimated
Sat 09:35:32 AM 53.6092 -5.0154 North  Level Estimated
Sat 09:36:32 AM 53.7143 -4.9897 North  Level Estimated
Sat 09:37:32 AM 53.8194 -4.9640 North  Level Estimated
Sat 09:38:32 AM 53.8982 -4.9446 North  Level Estimated
Sat 09:39:32 AM 53.9769 -4.9251 North  Level Estimated
Sat 09:40:32 AM 54.0556 -4.9056 North  Level Estimated
Sat 09:41:32 AM 54.1343 -4.8860 North  Level Estimated
Sat 09:42:32 AM 54.2130 -4.8663 North  Level Estimated
Sat 09:43:32 AM 54.2917 -4.8466 North  Level Estimated
Sat 09:44:32 AM 54.3704 -4.8267 North  Level Estimated
Sat 09:45:32 AM 54.4491 -4.8068 North  Level Estimated
Sat 09:46:32 AM 54.5278 -4.7869 North  Level Estimated
Sat 09:47:32 AM 54.6065 -4.7668 North  Level Estimated
Sat 09:48:32 AM 54.6852 -4.7467 North  Level Estimated
Sat 09:49:32 AM 54.7902 -4.7196 North  Level Estimated
Sat 09:50:32 AM 54.8953 -4.6925 North  Level Estimated
Sat 09:51:32 AM 55.0004 -4.6652 North  Level Estimated
Sat 09:52:32 AM 55.1054 -4.6378 North  Level Estimated
Sat 09:53:32 AM 55.1841 -4.6171 North  Level Estimated
Sat 09:54:32 AM 55.2627 -4.5964 North  Level Estimated
Sat 09:55:32 AM 55.3414 -4.5756 North  Level Estimated
Sat 09:56:32 AM 55.4200 -4.5547 North  Level Estimated
Sat 09:57:32 AM 55.4987 -4.5338 North  Level Estimated
Sat 09:58:32 AM 55.5773 -4.5127 North  Level Estimated
Sat 09:59:32 AM 55.6560 -4.4915 North  Level Estimated
Sat 10:00:32 AM 55.7346 -4.4703 North  Level Estimated
Sat 10:01:32 AM 55.8396 -4.4419 North  Level Estimated

Login

Don't have an account? Register now (free) for customized features, flight alerts, and more!